createdAt,value
2019-03-18T07:43:10.486Z,33.90
2019-03-18T07:45:39.258Z,34.60
2019-03-18T07:48:08.338Z,33.90
2019-03-18T07:50:37.491Z,33.90
2019-03-18T07:53:06.529Z,34.80
2019-03-18T07:55:35.204Z,34.40
2019-03-18T07:58:03.905Z,33.80
2019-03-18T08:00:32.544Z,33.80
2019-03-18T08:03:03.500Z,34.10
2019-03-18T08:05:32.023Z,33.80
2019-03-18T08:08:00.803Z,33.90
2019-03-18T08:10:29.689Z,33.50
2019-03-18T08:12:58.642Z,33.60
2019-03-18T08:15:27.771Z,34.10
2019-03-18T08:17:56.451Z,33.40
2019-03-18T08:20:25.134Z,33.90
2019-03-18T08:22:53.936Z,33.80
2019-03-18T08:25:22.707Z,33.60
2019-03-18T08:27:51.639Z,33.10
2019-03-18T08:30:20.488Z,33.70
2019-03-18T08:32:49.148Z,33.70
2019-03-18T08:35:18.367Z,33.70
2019-03-18T08:37:47.078Z,33.70
2019-03-18T08:40:16.475Z,33.90
2019-03-18T08:42:45.114Z,34.00
2019-03-18T08:45:14.133Z,34.30
2019-03-18T08:47:43.017Z,34.40
2019-03-18T08:50:12.924Z,34.20
2019-03-18T08:52:44.981Z,34.30
2019-03-18T08:55:14.315Z,34.20
2019-03-18T08:57:47.967Z,34.40
2019-03-18T09:00:19.290Z,34.40
2019-03-18T09:02:48.652Z,35.00
2019-03-18T09:05:18.655Z,34.20
2019-03-18T09:07:48.660Z,34.20
2019-03-18T09:10:19.611Z,34.20
2019-03-18T09:12:48.408Z,34.20
2019-03-18T09:15:17.288Z,34.30
2019-03-18T09:17:45.987Z,34.70
2019-03-18T09:20:17.136Z,34.00
2019-03-18T09:22:47.049Z,34.10
2019-03-18T09:25:16.704Z,34.00
2019-03-18T09:27:46.387Z,33.70
2019-03-18T09:30:18.204Z,33.90
2019-03-18T09:32:47.936Z,33.50
2019-03-18T09:35:16.692Z,33.90
2019-03-18T09:37:46.969Z,33.90
2019-03-18T09:40:18.274Z,33.90
2019-03-18T09:42:47.195Z,33.90
2019-03-18T09:45:17.075Z,34.30
2019-03-18T09:48:20.075Z,34.30
2019-03-18T09:50:49.816Z,34.20
2019-03-18T09:53:19.233Z,33.90
2019-03-18T09:55:47.979Z,33.80
2019-03-18T09:58:17.990Z,33.90
2019-03-18T10:00:47.084Z,33.80
2019-03-18T10:03:17.267Z,33.80
2019-03-18T10:05:47.186Z,33.80
2019-03-18T10:08:17.016Z,34.10
2019-03-18T10:10:46.496Z,34.00
2019-03-18T10:13:17.049Z,33.30
2019-03-18T10:15:46.786Z,33.00
2019-03-18T10:18:16.658Z,33.60
2019-03-18T10:20:46.675Z,33.60
2019-03-18T10:23:15.574Z,33.80
2019-03-18T10:25:46.044Z,33.70
2019-03-18T10:28:16.622Z,33.70
2019-03-18T10:30:46.262Z,33.70
2019-03-18T10:33:15.550Z,33.70
2019-03-18T10:35:45.271Z,33.60
2019-03-18T10:38:14.866Z,33.70
2019-03-18T10:40:44.737Z,33.90
2019-03-18T10:43:15.104Z,33.50
2019-03-18T10:45:45.244Z,33.70
2019-03-18T10:48:14.218Z,33.50
2019-03-18T10:50:43.419Z,33.40
2019-03-18T10:53:12.320Z,33.20
2019-03-18T10:55:41.713Z,33.50
2019-03-18T10:58:12.092Z,33.30
2019-03-18T11:00:41.895Z,33.30
